sensor_id;sensor_type;location;lat;lon;timestamp;pressure;altitude;pressure_sealevel;temperature
53667;BMP280;39568;51.026;5.468;2022-09-09T00:00:32;100024.06;;;14.59
53667;BMP280;39568;51.026;5.468;2022-09-09T00:03:05;100030.28;;;14.54
53667;BMP280;39568;51.026;5.468;2022-09-09T00:05:44;100034.19;;;14.53
53667;BMP280;39568;51.026;5.468;2022-09-09T00:08:20;100024.88;;;14.47
53667;BMP280;39568;51.026;5.468;2022-09-09T00:10:52;100020.25;;;14.47
53667;BMP280;39568;51.026;5.468;2022-09-09T00:13:23;100022.34;;;14.41
53667;BMP280;39568;51.026;5.468;2022-09-09T00:15:57;100025.75;;;14.42
53667;BMP280;39568;51.026;5.468;2022-09-09T00:18:33;100023.94;;;14.44
53667;BMP280;39568;51.026;5.468;2022-09-09T00:21:10;100019.66;;;14.41
53667;BMP280;39568;51.026;5.468;2022-09-09T00:23:39;100020.69;;;14.31
53667;BMP280;39568;51.026;5.468;2022-09-09T00:26:10;100017.28;;;14.30
53667;BMP280;39568;51.026;5.468;2022-09-09T00:28:42;100010.13;;;14.25
53667;BMP280;39568;51.026;5.468;2022-09-09T00:31:14;100015.81;;;14.22
53667;BMP280;39568;51.026;5.468;2022-09-09T00:33:43;100009.16;;;14.15
53667;BMP280;39568;51.026;5.468;2022-09-09T00:36:16;100010.03;;;14.10
53667;BMP280;39568;51.026;5.468;2022-09-09T00:38:47;100005.75;;;14.07
53667;BMP280;39568;51.026;5.468;2022-09-09T00:41:18;100002.50;;;14.01
53667;BMP280;39568;51.026;5.468;2022-09-09T00:43:55;100005.81;;;13.94
53667;BMP280;39568;51.026;5.468;2022-09-09T00:46:40;100000.28;;;13.92
53667;BMP280;39568;51.026;5.468;2022-09-09T00:49:17;99997.41;;;13.90
53667;BMP280;39568;51.026;5.468;2022-09-09T00:51:58;99993.50;;;13.91
53667;BMP280;39568;51.026;5.468;2022-09-09T00:54:31;99999.91;;;13.88
53667;BMP280;39568;51.026;5.468;2022-09-09T00:57:18;100004.84;;;13.84
53667;BMP280;39568;51.026;5.468;2022-09-09T00:59:51;99995.59;;;13.85
53667;BMP280;39568;51.026;5.468;2022-09-09T01:02:30;99995.59;;;13.85
53667;BMP280;39568;51.026;5.468;2022-09-09T01:05:04;99996.84;;;13.84
53667;BMP280;39568;51.026;5.468;2022-09-09T01:07:33;99990.59;;;13.81
53667;BMP280;39568;51.026;5.468;2022-09-09T01:10:00;99994.16;;;13.84
53667;BMP280;39568;51.026;5.468;2022-09-09T01:12:35;99988.56;;;13.74
53667;BMP280;39568;51.026;5.468;2022-09-09T01:15:12;99987.34;;;13.75
53667;BMP280;39568;51.026;5.468;2022-09-09T01:17:49;99990.59;;;13.81
53667;BMP280;39568;51.026;5.468;2022-09-09T01:20:20;99992.78;;;13.90
53667;BMP280;39568;51.026;5.468;2022-09-09T01:23:00;99977.41;;;13.83
53667;BMP280;39568;51.026;5.468;2022-09-09T01:28:35;99985.09;;;13.87
53667;BMP280;39568;51.026;5.468;2022-09-09T01:31:04;99979.75;;;13.87
53667;BMP280;39568;51.026;5.468;2022-09-09T01:33:32;99984.63;;;13.96
53667;BMP280;39568;51.026;5.468;2022-09-09T01:36:03;99986.25;;;13.99
53667;BMP280;39568;51.026;5.468;2022-09-09T01:38:32;99985.41;;;14.04
53667;BMP280;39568;51.026;5.468;2022-09-09T01:41:01;99988.25;;;14.06
53667;BMP280;39568;51.026;5.468;2022-09-09T01:43:28;99989.34;;;14.11
53667;BMP280;39568;51.026;5.468;2022-09-09T01:45:59;99993.66;;;14.14
53667;BMP280;39568;51.026;5.468;2022-09-09T01:48:27;99980.97;;;14.14
53667;BMP280;39568;51.026;5.468;2022-09-09T01:50:53;99981.91;;;14.17
53667;BMP280;39568;51.026;5.468;2022-09-09T01:53:21;99974.59;;;14.17
53667;BMP280;39568;51.026;5.468;2022-09-09T01:55:57;99988.31;;;14.21
53667;BMP280;39568;51.026;5.468;2022-09-09T01:58:32;99973.94;;;14.24
53667;BMP280;39568;51.026;5.468;2022-09-09T02:01:07;99978.03;;;14.25
53667;BMP280;39568;51.026;5.468;2022-09-09T02:03:38;99974.94;;;14.21
53667;BMP280;39568;51.026;5.468;2022-09-09T02:06:17;99968.94;;;14.28
53667;BMP280;39568;51.026;5.468;2022-09-09T02:08:49;99967.91;;;14.31
53667;BMP280;39568;51.026;5.468;2022-09-09T02:11:18;99965.22;;;14.31
53667;BMP280;39568;51.026;5.468;2022-09-09T02:13:46;99959.00;;;14.36
53667;BMP280;39568;51.026;5.468;2022-09-09T02:16:19;99954.88;;;14.35
53667;BMP280;39568;51.026;5.468;2022-09-09T02:18:50;99965.63;;;14.43
53667;BMP280;39568;51.026;5.468;2022-09-09T02:21:17;99960.25;;;14.35
53667;BMP280;39568;51.026;5.468;2022-09-09T02:23:47;99965.06;;;14.37
53667;BMP280;39568;51.026;5.468;2022-09-09T02:26:17;99956.34;;;14.36
53667;BMP280;39568;51.026;5.468;2022-09-09T02:28:50;99954.88;;;14.35
53667;BMP280;39568;51.026;5.468;2022-09-09T02:31:20;99952.41;;;14.37
53667;BMP280;39568;51.026;5.468;2022-09-09T02:33:51;99949.19;;;14.39
53667;BMP280;39568;51.026;5.468;2022-09-09T02:36:20;99954.53;;;14.39
53667;BMP280;39568;51.026;5.468;2022-09-09T02:38:50;99941.69;;;14.37
53667;BMP280;39568;51.026;5.468;2022-09-09T02:41:23;99942.06;;;14.41
53667;BMP280;39568;51.026;5.468;2022-09-09T02:43:50;99947.41;;;14.41
53667;BMP280;39568;51.026;5.468;2022-09-09T02:46:27;99952.03;;;14.41
53667;BMP280;39568;51.026;5.468;2022-09-09T02:49:00;99939.97;;;14.47
53667;BMP280;39568;51.026;5.468;2022-09-09T02:51:36;99945.97;;;14.40
53667;BMP280;39568;51.026;5.468;2022-09-09T02:54:10;99944.94;;;14.43
53667;BMP280;39568;51.026;5.468;2022-09-09T02:56:46;99949.41;;;14.48
53667;BMP280;39568;51.026;5.468;2022-09-09T02:59:15;99948.84;;;14.50
53667;BMP280;39568;51.026;5.468;2022-09-09T03:01:43;99949.59;;;14.50
53667;BMP280;39568;51.026;5.468;2022-09-09T03:04:13;99947.09;;;14.52
53667;BMP280;39568;51.026;5.468;2022-09-09T03:06:44;99944.63;;;14.54
53667;BMP280;39568;51.026;5.468;2022-09-09T03:09:10;99946.72;;;14.48
53667;BMP280;39568;51.026;5.468;2022-09-09T03:11:38;99955.31;;;14.54
53667;BMP280;39568;51.026;5.468;2022-09-09T03:14:09;99946.41;;;14.52
53667;BMP280;39568;51.026;5.468;2022-09-09T03:16:36;99949.97;;;14.54
53667;BMP280;39568;51.026;5.468;2022-09-09T03:19:04;99952.66;;;14.54
53667;BMP280;39568;51.026;5.468;2022-09-09T03:21:31;99953.38;;;14.62
53667;BMP280;39568;51.026;5.468;2022-09-09T03:23:58;99950.34;;;14.58
53667;BMP280;39568;51.026;5.468;2022-09-09T03:26:25;99950.34;;;14.58
53667;BMP280;39568;51.026;5.468;2022-09-09T03:28:51;99956.41;;;14.59
53667;BMP280;39568;51.026;5.468;2022-09-09T03:31:20;99949.09;;;14.59
53667;BMP280;39568;51.026;5.468;2022-09-09T03:33:50;99953.19;;;14.60
53667;BMP280;39568;51.026;5.468;2022-09-09T03:36:18;99958.72;;;14.62
53667;BMP280;39568;51.026;5.468;2022-09-09T03:38:44;99958.75;;;14.70
53667;BMP280;39568;51.026;5.468;2022-09-09T03:41:11;99956.44;;;14.66
53667;BMP280;39568;51.026;5.468;2022-09-09T03:43:38;99965.19;;;14.74
53667;BMP280;39568;51.026;5.468;2022-09-09T03:46:05;99956.13;;;14.77
53667;BMP280;39568;51.026;5.468;2022-09-09T03:48:32;99958.25;;;14.79
53667;BMP280;39568;51.026;5.468;2022-09-09T03:51:05;99960.38;;;14.81
53667;BMP280;39568;51.026;5.468;2022-09-09T03:53:34;99959.34;;;14.84
53667;BMP280;39568;51.026;5.468;2022-09-09T03:56:01;99960.41;;;14.88
53667;BMP280;39568;51.026;5.468;2022-09-09T03:58:28;99961.47;;;14.85
53667;BMP280;39568;51.026;5.468;2022-09-09T04:00:56;99961.13;;;14.89
53667;BMP280;39568;51.026;5.468;2022-09-09T04:03:25;99952.56;;;14.90
53667;BMP280;39568;51.026;5.468;2022-09-09T04:05:54;99955.94;;;14.91
53667;BMP280;39568;51.026;5.468;2022-09-09T04:08:22;99955.41;;;14.92
53667;BMP280;39568;51.026;5.468;2022-09-09T04:10:52;99940.41;;;14.97
53667;BMP280;39568;51.026;5.468;2022-09-09T04:13:23;99949.72;;;14.96
53667;BMP280;39568;51.026;5.468;2022-09-09T04:15:51;99947.19;;;14.90
53667;BMP280;39568;51.026;5.468;2022-09-09T04:18:18;99951.47;;;14.86
53667;BMP280;39568;51.026;5.468;2022-09-09T04:20:48;99948.22;;;14.79
53667;BMP280;39568;51.026;5.468;2022-09-09T04:23:22;99942.50;;;14.75
53667;BMP280;39568;51.026;5.468;2022-09-09T04:25:52;99946.44;;;14.74
53667;BMP280;39568;51.026;5.468;2022-09-09T04:28:21;99936.44;;;14.67
53667;BMP280;39568;51.026;5.468;2022-09-09T04:30:48;99933.75;;;14.67
53667;BMP280;39568;51.026;5.468;2022-09-09T04:33:15;99942.84;;;14.64
53667;BMP280;39568;51.026;5.468;2022-09-09T04:35:44;99942.50;;;14.60
53667;BMP280;39568;51.026;5.468;2022-09-09T04:38:11;99933.72;;;14.60
53667;BMP280;39568;51.026;5.468;2022-09-09T04:40:37;99936.94;;;14.58
53667;BMP280;39568;51.026;5.468;2022-09-09T04:43:09;99930.91;;;14.65
53667;BMP280;39568;51.026;5.468;2022-09-09T04:45:36;99929.28;;;14.62
53667;BMP280;39568;51.026;5.468;2022-09-09T04:48:03;99925.72;;;14.67
53667;BMP280;39568;51.026;5.468;2022-09-09T04:50:33;99932.84;;;14.65
53667;BMP280;39568;51.026;5.468;2022-09-09T04:53:00;99929.66;;;14.66
53667;BMP280;39568;51.026;5.468;2022-09-09T04:55:29;99942.84;;;14.64
53667;BMP280;39568;51.026;5.468;2022-09-09T04:57:57;99935.75;;;14.67
53667;BMP280;39568;51.026;5.468;2022-09-09T05:00:25;99946.81;;;14.71
53667;BMP280;39568;51.026;5.468;2022-09-09T05:02:51;99938.94;;;14.65
53667;BMP280;39568;51.026;5.468;2022-09-09T05:05:18;99942.50;;;14.68
53667;BMP280;39568;51.026;5.468;2022-09-09T05:07:45;99939.66;;;14.66
53667;BMP280;39568;51.026;5.468;2022-09-09T05:10:12;99941.44;;;14.63
53667;BMP280;39568;51.026;5.468;2022-09-09T05:12:40;99935.19;;;14.61
53667;BMP280;39568;51.026;5.468;2022-09-09T05:15:08;99945.34;;;14.55
53667;BMP280;39568;51.026;5.468;2022-09-09T05:17:36;99941.72;;;14.52
53667;BMP280;39568;51.026;5.468;2022-09-09T05:20:03;99940.31;;;14.51
53667;BMP280;39568;51.026;5.468;2022-09-09T05:22:30;99947.63;;;14.51
53667;BMP280;39568;51.026;5.468;2022-09-09T05:24:56;99944.06;;;14.56
53667;BMP280;39568;51.026;5.468;2022-09-09T05:27:23;99953.91;;;14.61
53667;BMP280;39568;51.026;5.468;2022-09-09T05:29:56;99954.28;;;14.65
53667;BMP280;39568;51.026;5.468;2022-09-09T05:32:23;99956.09;;;14.70
53667;BMP280;39568;51.026;5.468;2022-09-09T05:34:51;99950.72;;;14.70
53667;BMP280;39568;51.026;5.468;2022-09-09T05:37:19;99950.75;;;14.77
53667;BMP280;39568;51.026;5.468;2022-09-09T05:39:45;99949.88;;;14.83
53667;BMP280;39568;51.026;5.468;2022-09-09T05:42:12;99964.16;;;14.85
53667;BMP280;39568;51.026;5.468;2022-09-09T05:44:39;99962.91;;;14.86
53667;BMP280;39568;51.026;5.468;2022-09-09T05:47:08;99956.84;;;14.86
53667;BMP280;39568;51.026;5.468;2022-09-09T05:49:34;99943.81;;;14.97
53667;BMP280;39568;51.026;5.468;2022-09-09T05:52:03;99954.72;;;15.07
53667;BMP280;39568;51.026;5.468;2022-09-09T05:54:31;99961.50;;;15.08
53667;BMP280;39568;51.026;5.468;2022-09-09T05:56:58;99955.09;;;15.11
53667;BMP280;39568;51.026;5.468;2022-09-09T05:59:25;99958.47;;;15.11
53667;BMP280;39568;51.026;5.468;2022-09-09T06:01:54;99959.03;;;15.17
53667;BMP280;39568;51.026;5.468;2022-09-09T06:04:20;99954.75;;;15.22
53667;BMP280;39568;51.026;5.468;2022-09-09T06:06:50;99962.78;;;15.22
53667;BMP280;39568;51.026;5.468;2022-09-09T06:09:23;99967.59;;;15.31
53667;BMP280;39568;51.026;5.468;2022-09-09T06:11:54;99954.06;;;15.29
53667;BMP280;39568;51.026;5.468;2022-09-09T06:14:20;99954.19;;;15.31
53667;BMP280;39568;51.026;5.468;2022-09-09T06:16:50;99957.09;;;15.33
53667;BMP280;39568;51.026;5.468;2022-09-09T06:19:17;99957.09;;;15.33
53667;BMP280;39568;51.026;5.468;2022-09-09T06:21:44;99955.28;;;15.35
53667;BMP280;39568;51.026;5.468;2022-09-09T06:24:13;99955.09;;;15.41
53667;BMP280;39568;51.026;5.468;2022-09-09T06:26:43;99940.09;;;15.53
53667;BMP280;39568;51.026;5.468;2022-09-09T06:29:19;99956.88;;;15.69
53667;BMP280;39568;51.026;5.468;2022-09-09T06:31:48;99951.31;;;15.74
53667;BMP280;39568;51.026;5.468;2022-09-09T06:34:14;99953.09;;;15.79
53667;BMP280;39568;51.026;5.468;2022-09-09T06:36:41;99950.59;;;15.81
53667;BMP280;39568;51.026;5.468;2022-09-09T06:39:08;99942.00;;;15.83
53667;BMP280;39568;51.026;5.468;2022-09-09T06:41:36;99939.50;;;15.92
53667;BMP280;39568;51.026;5.468;2022-09-09T06:44:05;99935.75;;;15.88
53667;BMP280;39568;51.026;5.468;2022-09-09T06:46:37;99938.59;;;15.82
53667;BMP280;39568;51.026;5.468;2022-09-09T06:49:04;99932.88;;;15.86
53667;BMP280;39568;51.026;5.468;2022-09-09T06:51:33;99938.94;;;15.94
53667;BMP280;39568;51.026;5.468;2022-09-09T06:54:02;99944.28;;;16.01
53667;BMP280;39568;51.026;5.468;2022-09-09T06:56:31;99934.06;;;16.07
53667;BMP280;39568;51.026;5.468;2022-09-09T06:59:04;99933.00;;;16.10
53667;BMP280;39568;51.026;5.468;2022-09-09T07:01:35;99932.03;;;16.31
53667;BMP280;39568;51.026;5.468;2022-09-09T07:04:03;99936.28;;;16.34
53667;BMP280;39568;51.026;5.468;2022-09-09T07:06:34;99953.19;;;16.51
53667;BMP280;39568;51.026;5.468;2022-09-09T07:09:03;99943.84;;;16.60
53667;BMP280;39568;51.026;5.468;2022-09-09T07:11:32;99954.13;;;16.78
53667;BMP280;39568;51.026;5.468;2022-09-09T07:13:59;99940.69;;;16.78
53667;BMP280;39568;51.026;5.468;2022-09-09T07:16:28;99935.97;;;16.86
53667;BMP280;39568;51.026;5.468;2022-09-09T07:18:57;99940.25;;;16.65
53667;BMP280;39568;51.026;5.468;2022-09-09T07:21:25;99928.94;;;16.42
53667;BMP280;39568;51.026;5.468;2022-09-09T07:23:52;99953.66;;;16.65
53667;BMP280;39568;51.026;5.468;2022-09-09T07:26:21;99937.94;;;16.61
53667;BMP280;39568;51.026;5.468;2022-09-09T07:28:48;99940.56;;;16.37
53667;BMP280;39568;51.026;5.468;2022-09-09T07:31:18;99936.63;;;16.38
53667;BMP280;39568;51.026;5.468;2022-09-09T07:33:47;99929.06;;;16.44
53667;BMP280;39568;51.026;5.468;2022-09-09T07:36:16;99941.06;;;16.75
53667;BMP280;39568;51.026;5.468;2022-09-09T07:38:45;99936.31;;;16.66
53667;BMP280;39568;51.026;5.468;2022-09-09T07:41:20;99937.44;;;16.80
53667;BMP280;39568;51.026;5.468;2022-09-09T07:43:48;99939.06;;;17.08
53667;BMP280;39568;51.026;5.468;2022-09-09T07:46:17;99945.16;;;17.08
53667;BMP280;39568;51.026;5.468;2022-09-09T07:48:48;99933.84;;;16.85
53667;BMP280;39568;51.026;5.468;2022-09-09T07:51:18;99948.09;;;16.95
53667;BMP280;39568;51.026;5.468;2022-09-09T07:53:48;99943.44;;;17.20
53667;BMP280;39568;51.026;5.468;2022-09-09T07:56:16;99962.56;;;17.24
53667;BMP280;39568;51.026;5.468;2022-09-09T07:58:45;99946.00;;;17.35
53667;BMP280;39568;51.026;5.468;2022-09-09T08:01:14;99941.34;;;17.36
53667;BMP280;39568;51.026;5.468;2022-09-09T08:03:43;99951.31;;;17.43
53667;BMP280;39568;51.026;5.468;2022-09-09T08:06:12;99942.84;;;17.63
53667;BMP280;39568;51.026;5.468;2022-09-09T08:08:39;99948.22;;;17.63
53667;BMP280;39568;51.026;5.468;2022-09-09T08:11:11;99943.78;;;17.58
53667;BMP280;39568;51.026;5.468;2022-09-09T08:13:38;99929.53;;;17.31
53667;BMP280;39568;51.026;5.468;2022-09-09T08:16:07;99960.03;;;17.26
53667;BMP280;39568;51.026;5.468;2022-09-09T08:18:34;99957.69;;;17.30
53667;BMP280;39568;51.026;5.468;2022-09-09T08:21:09;99964.88;;;17.28
53667;BMP280;39568;51.026;5.468;2022-09-09T08:23:38;99961.84;;;17.24
53667;BMP280;39568;51.026;5.468;2022-09-09T08:26:09;99954.97;;;17.13
53667;BMP280;39568;51.026;5.468;2022-09-09T08:28:38;99952.09;;;17.11
53667;BMP280;39568;51.026;5.468;2022-09-09T08:31:10;99949.09;;;17.07
53667;BMP280;39568;51.026;5.468;2022-09-09T08:33:37;99952.28;;;17.13
53667;BMP280;39568;51.026;5.468;2022-09-09T08:36:05;99957.88;;;17.08
53667;BMP280;39568;51.026;5.468;2022-09-09T08:38:32;99953.94;;;17.26
53667;BMP280;39568;51.026;5.468;2022-09-09T08:41:35;99960.00;;;17.09
53667;BMP280;39568;51.026;5.468;2022-09-09T08:44:07;99956.59;;;17.09
53667;BMP280;39568;51.026;5.468;2022-09-09T08:46:51;99964.19;;;17.03
53667;BMP280;39568;51.026;5.468;2022-09-09T08:49:46;99975.91;;;17.15
53667;BMP280;39568;51.026;5.468;2022-09-09T08:52:18;99968.78;;;17.10
53667;BMP280;39568;51.026;5.468;2022-09-09T08:54:50;99961.28;;;17.08
53667;BMP280;39568;51.026;5.468;2022-09-09T08:57:25;99975.66;;;17.03
53667;BMP280;39568;51.026;5.468;2022-09-09T08:59:54;99991.94;;;17.05
53667;BMP280;39568;51.026;5.468;2022-09-09T09:02:25;99973.38;;;16.92
53667;BMP280;39568;51.026;5.468;2022-09-09T09:05:04;99974.56;;;16.98
53667;BMP280;39568;51.026;5.468;2022-09-09T09:07:44;99997.47;;;16.75
53667;BMP280;39568;51.026;5.468;2022-09-09T09:10:23;99991.75;;;16.39
53667;BMP280;39568;51.026;5.468;2022-09-09T09:12:58;99998.59;;;16.25
53667;BMP280;39568;51.026;5.468;2022-09-09T09:15:36;99994.19;;;15.97
53667;BMP280;39568;51.026;5.468;2022-09-09T09:18:04;99992.41;;;15.99
53667;BMP280;39568;51.026;5.468;2022-09-09T09:20:39;99991.16;;;15.93
53667;BMP280;39568;51.026;5.468;2022-09-09T09:23:17;99989.75;;;15.92
53667;BMP280;39568;51.026;5.468;2022-09-09T09:25:45;99997.06;;;15.99
53667;BMP280;39568;51.026;5.468;2022-09-09T09:28:16;100000.09;;;16.03
53667;BMP280;39568;51.026;5.468;2022-09-09T09:30:48;100005.41;;;16.26
53667;BMP280;39568;51.026;5.468;2022-09-09T09:33:21;99997.19;;;16.16
53667;BMP280;39568;51.026;5.468;2022-09-09T09:35:50;99997.53;;;16.12
53667;BMP280;39568;51.026;5.468;2022-09-09T09:38:19;99985.38;;;16.27
53667;BMP280;39568;51.026;5.468;2022-09-09T09:40:51;100005.72;;;16.37
53667;BMP280;39568;51.026;5.468;2022-09-09T09:43:25;100003.16;;;16.54
53667;BMP280;39568;51.026;5.468;2022-09-09T09:45:52;99991.59;;;16.69
53667;BMP280;39568;51.026;5.468;2022-09-09T09:48:20;99975.63;;;16.78
53667;BMP280;39568;51.026;5.468;2022-09-09T09:50:51;99995.13;;;16.79
53667;BMP280;39568;51.026;5.468;2022-09-09T09:53:22;99997.97;;;16.88
53667;BMP280;39568;51.026;5.468;2022-09-09T09:55:55;99994.59;;;17.13
53667;BMP280;39568;51.026;5.468;2022-09-09T09:58:28;99999.75;;;17.11
53667;BMP280;39568;51.026;5.468;2022-09-09T10:01:04;99994.59;;;17.13
53667;BMP280;39568;51.026;5.468;2022-09-09T10:03:33;99988.50;;;17.29
53667;BMP280;39568;51.026;5.468;2022-09-09T10:06:04;100001.50;;;17.23
53667;BMP280;39568;51.026;5.468;2022-09-09T10:08:33;99992.94;;;17.34
53667;BMP280;39568;51.026;5.468;2022-09-09T10:11:06;99988.41;;;17.20
53667;BMP280;39568;51.026;5.468;2022-09-09T10:13:48;99992.16;;;17.24
53667;BMP280;39568;51.026;5.468;2022-09-09T10:16:33;100008.44;;;17.26
53667;BMP280;39568;51.026;5.468;2022-09-09T10:19:04;99987.25;;;16.81
53667;BMP280;39568;51.026;5.468;2022-09-09T10:21:47;99999.81;;;16.39
53667;BMP280;39568;51.026;5.468;2022-09-09T10:24:33;99999.72;;;16.06
53667;BMP280;39568;51.026;5.468;2022-09-09T10:27:05;99993.13;;;15.85
53667;BMP280;39568;51.026;5.468;2022-09-09T10:29:50;99990.63;;;15.79
53667;BMP280;39568;51.026;5.468;2022-09-09T10:32:36;99996.56;;;15.78
53667;BMP280;39568;51.026;5.468;2022-09-09T10:35:09;100009.81;;;15.68
53667;BMP280;39568;51.026;5.468;2022-09-09T10:37:45;100006.59;;;15.62
53667;BMP280;39568;51.026;5.468;2022-09-09T10:40:25;100010.19;;;15.57
53667;BMP280;39568;51.026;5.468;2022-09-09T10:43:00;99999.06;;;15.53
53667;BMP280;39568;51.026;5.468;2022-09-09T10:45:38;100009.63;;;15.51
53667;BMP280;39568;51.026;5.468;2022-09-09T10:48:18;100025.16;;;15.53
53667;BMP280;39568;51.026;5.468;2022-09-09T10:50:55;100020.34;;;15.51
53667;BMP280;39568;51.026;5.468;2022-09-09T10:53:33;100015.13;;;15.38
53667;BMP280;39568;51.026;5.468;2022-09-09T10:56:06;100021.94;;;15.39
53667;BMP280;39568;51.026;5.468;2022-09-09T10:58:38;100033.19;;;15.30
53667;BMP280;39568;51.026;5.468;2022-09-09T11:01:12;100028.88;;;15.42
53667;BMP280;39568;51.026;5.468;2022-09-09T11:03:41;100018.91;;;15.65
53667;BMP280;39568;51.026;5.468;2022-09-09T11:06:13;100027.31;;;15.92
53667;BMP280;39568;51.026;5.468;2022-09-09T11:08:42;100014.78;;;15.94
53667;BMP280;39568;51.026;5.468;2022-09-09T11:11:12;100026.91;;;16.10
53667;BMP280;39568;51.026;5.468;2022-09-09T11:13:45;100014.19;;;16.18
53667;BMP280;39568;51.026;5.468;2022-09-09T11:16:23;100023.03;;;16.44
53667;BMP280;39568;51.026;5.468;2022-09-09T11:18:55;100025.00;;;16.51
53667;BMP280;39568;51.026;5.468;2022-09-09T11:21:27;100011.84;;;16.70
53667;BMP280;39568;51.026;5.468;2022-09-09T11:23:57;100018.84;;;16.65
53667;BMP280;39568;51.026;5.468;2022-09-09T11:26:32;100006.72;;;16.49
53667;BMP280;39568;51.026;5.468;2022-09-09T11:29:19;100023.72;;;16.52
53667;BMP280;39568;51.026;5.468;2022-09-09T11:32:00;100018.09;;;16.72
53667;BMP280;39568;51.026;5.468;2022-09-09T11:34:39;100007.59;;;16.91
53667;BMP280;39568;51.026;5.468;2022-09-09T11:37:20;100006.22;;;16.83
53667;BMP280;39568;51.026;5.468;2022-09-09T11:40:08;100015.47;;;16.97
53667;BMP280;39568;51.026;5.468;2022-09-09T11:42:35;100002.22;;;16.91
53667;BMP280;39568;51.026;5.468;2022-09-09T11:45:10;100009.03;;;16.92
53667;BMP280;39568;51.026;5.468;2022-09-09T11:47:39;100003.66;;;17.42
53667;BMP280;39568;51.026;5.468;2022-09-09T11:50:26;100010.53;;;17.77
53667;BMP280;39568;51.026;5.468;2022-09-09T11:56:00;100005.53;;;17.56
53667;BMP280;39568;51.026;5.468;2022-09-09T11:58:34;100019.91;;;17.68
53667;BMP280;39568;51.026;5.468;2022-09-09T12:01:16;100007.97;;;17.62
53667;BMP280;39568;51.026;5.468;2022-09-09T12:04:01;100003.84;;;17.61
53667;BMP280;39568;51.026;5.468;2022-09-09T12:06:30;100007.59;;;17.83
53667;BMP280;39568;51.026;5.468;2022-09-09T12:09:06;100007.34;;;17.71
53667;BMP280;39568;51.026;5.468;2022-09-09T12:11:34;100006.38;;;17.59
53667;BMP280;39568;51.026;5.468;2022-09-09T12:14:19;100001.00;;;17.59
53667;BMP280;39568;51.026;5.468;2022-09-09T12:16:46;99999.97;;;17.89
53667;BMP280;39568;51.026;5.468;2022-09-09T12:19:16;99999.56;;;17.58
53667;BMP280;39568;51.026;5.468;2022-09-09T12:21:50;100008.63;;;17.28
53667;BMP280;39568;51.026;5.468;2022-09-09T12:24:23;99999.50;;;17.24
53667;BMP280;39568;51.026;5.468;2022-09-09T12:26:58;100009.56;;;17.23
53667;BMP280;39568;51.026;5.468;2022-09-09T12:29:32;100000.88;;;17.32
53667;BMP280;39568;51.026;5.468;2022-09-09T12:32:07;100000.56;;;17.28
53667;BMP280;39568;51.026;5.468;2022-09-09T12:34:39;100006.19;;;17.15
53667;BMP280;39568;51.026;5.468;2022-09-09T12:37:21;100021.44;;;16.88
53667;BMP280;39568;51.026;5.468;2022-09-09T12:39:53;100020.97;;;16.99
53667;BMP280;39568;51.026;5.468;2022-09-09T12:42:22;99993.97;;;16.97
53667;BMP280;39568;51.026;5.468;2022-09-09T12:44:53;100007.16;;;16.78
53667;BMP280;39568;51.026;5.468;2022-09-09T12:47:23;100004.38;;;16.93
53667;BMP280;39568;51.026;5.468;2022-09-09T12:49:55;100005.84;;;17.78
53667;BMP280;39568;51.026;5.468;2022-09-09T12:52:31;100005.88;;;18.38
53667;BMP280;39568;51.026;5.468;2022-09-09T12:55:01;100019.09;;;19.07
53667;BMP280;39568;51.026;5.468;2022-09-09T12:57:35;100003.50;;;19.89
53667;BMP280;39568;51.026;5.468;2022-09-09T13:00:14;99998.94;;;21.13
53667;BMP280;39568;51.026;5.468;2022-09-09T13:02:50;99998.66;;;22.28
53667;BMP280;39568;51.026;5.468;2022-09-09T13:05:21;99999.88;;;22.36
53667;BMP280;39568;51.026;5.468;2022-09-09T13:07:48;99996.06;;;22.88
53667;BMP280;39568;51.026;5.468;2022-09-09T13:10:22;100003.50;;;21.31
53667;BMP280;39568;51.026;5.468;2022-09-09T13:12:49;99984.25;;;20.94
53667;BMP280;39568;51.026;5.468;2022-09-09T13:15:20;99982.09;;;21.89
53667;BMP280;39568;51.026;5.468;2022-09-09T13:17:56;99981.38;;;21.44
53667;BMP280;39568;51.026;5.468;2022-09-09T13:20:29;99974.31;;;20.57
53667;BMP280;39568;51.026;5.468;2022-09-09T13:22:57;99974.19;;;20.05
53667;BMP280;39568;51.026;5.468;2022-09-09T13:25:28;99994.97;;;19.93
53667;BMP280;39568;51.026;5.468;2022-09-09T13:28:01;99970.03;;;20.23
53667;BMP280;39568;51.026;5.468;2022-09-09T13:30:31;100003.31;;;20.16
53667;BMP280;39568;51.026;5.468;2022-09-09T13:33:04;99960.75;;;19.67
53667;BMP280;39568;51.026;5.468;2022-09-09T13:35:33;99976.78;;;19.55
53667;BMP280;39568;51.026;5.468;2022-09-09T13:38:07;99968.94;;;19.40
53667;BMP280;39568;51.026;5.468;2022-09-09T13:40:35;99968.06;;;19.38
53667;BMP280;39568;51.026;5.468;2022-09-09T13:43:02;99960.84;;;19.30
53667;BMP280;39568;51.026;5.468;2022-09-09T13:45:30;99963.28;;;19.36
53667;BMP280;39568;51.026;5.468;2022-09-09T13:48:18;99957.13;;;19.26
53667;BMP280;39568;51.026;5.468;2022-09-09T13:51:02;99971.78;;;19.33
53667;BMP280;39568;51.026;5.468;2022-09-09T13:53:30;99959.31;;;19.85
53667;BMP280;39568;51.026;5.468;2022-09-09T13:55:58;99973.38;;;21.04
53667;BMP280;39568;51.026;5.468;2022-09-09T13:58:26;99960.75;;;20.97
53667;BMP280;39568;51.026;5.468;2022-09-09T14:00:53;99961.47;;;20.76
53667;BMP280;39568;51.026;5.468;2022-09-09T14:03:20;99954.28;;;20.50
53667;BMP280;39568;51.026;5.468;2022-09-09T14:05:47;99946.47;;;20.14
53667;BMP280;39568;51.026;5.468;2022-09-09T14:08:24;99979.47;;;19.84
53667;BMP280;39568;51.026;5.468;2022-09-09T14:10:52;99968.88;;;20.66
53667;BMP280;39568;51.026;5.468;2022-09-09T14:13:24;99954.91;;;21.22
53667;BMP280;39568;51.026;5.468;2022-09-09T14:15:51;99959.06;;;20.61
53667;BMP280;39568;51.026;5.468;2022-09-09T14:18:18;99972.94;;;20.46
53667;BMP280;39568;51.026;5.468;2022-09-09T14:20:47;99951.91;;;20.75
53667;BMP280;39568;51.026;5.468;2022-09-09T14:23:16;99961.47;;;20.76
53667;BMP280;39568;51.026;5.468;2022-09-09T14:25:44;99943.91;;;20.77
53667;BMP280;39568;51.026;5.468;2022-09-09T14:28:13;99980.00;;;20.91
53667;BMP280;39568;51.026;5.468;2022-09-09T14:30:43;99963.97;;;20.84
53667;BMP280;39568;51.026;5.468;2022-09-09T14:33:11;99966.34;;;20.68
53667;BMP280;39568;51.026;5.468;2022-09-09T14:35:38;99963.34;;;21.37